Time;durP1;ratioP1;P1;durP2;ratioP2;P2;SDS_P1;SDS_P2;PMS_P1;PMS_P2;Temp;Humidity;BMP_temperature;BMP_pressure;BME280_temperature;BME280_humidity;BME280_pressure;Samples;Min_cycle;Max_cycle;Signal;HPM_P1;HPM_P2
2023/02/03 00:01:52;;;;;;;;;39.33;28.33;;;;;;;;5068779;28;8790;-65
2023/02/03 00:04:17;;;;;;;;;34.67;31.33;;;;;;;;5068715;28;9049;-65
2023/02/03 00:06:43;;;;;;;;;34.75;29.75;;;;;;;;5068838;28;8799;-65
2023/02/03 00:09:08;;;;;;;;;34.33;32.00;;;;;;;;5068950;28;8810;-65
2023/02/03 00:11:33;;;;;;;;;32.33;29.33;;;;;;;;5068806;28;8820;-66
2023/02/03 00:13:59;;;;;;;;;38.00;33.67;;;;;;;;5068714;28;9567;-64
2023/02/03 00:16:24;;;;;;;;;35.33;33.67;;;;;;;;5068751;28;8917;-66
2023/02/03 00:18:49;;;;;;;;;36.67;30.00;;;;;;;;5068715;28;8953;-65
2023/02/03 00:21:15;;;;;;;;;27.00;24.00;;;;;;;;5068849;28;8807;-64
2023/02/03 00:23:40;;;;;;;;;37.67;33.33;;;;;;;;5068604;28;8833;-65
2023/02/03 00:26:10;;;;;;;;;31.33;26.33;;;;;;;;5067212;28;8795;-65
2023/02/03 00:28:35;;;;;;;;;33.67;29.33;;;;;;;;5068957;28;9505;-64
2023/02/03 00:31:00;;;;;;;;;37.33;31.67;;;;;;;;5072021;28;11561;-65
2023/02/03 00:33:26;;;;;;;;;29.50;27.00;;;;;;;;5072282;28;8802;-65
2023/02/03 00:35:51;;;;;;;;;31.33;29.67;;;;;;;;5072674;28;8821;-64
2023/02/03 00:38:16;;;;;;;;;35.33;35.33;;;;;;;;5072369;28;8786;-65
2023/02/03 00:40:42;;;;;;;;;29.67;29.67;;;;;;;;5070742;28;9529;-65
2023/02/03 00:43:07;;;;;;;;;33.00;29.33;;;;;;;;5071727;28;8830;-65
2023/02/03 00:45:32;;;;;;;;;41.00;34.00;;;;;;;;5072062;28;8802;-65
2023/02/03 00:47:57;;;;;;;;;41.67;38.33;;;;;;;;5072017;28;8869;-64
2023/02/03 00:50:23;;;;;;;;;39.33;36.33;;;;;;;;5071796;28;8836;-66
2023/02/03 00:52:48;;;;;;;;;45.00;39.67;;;;;;;;5071844;28;8806;-65
2023/02/03 00:55:13;;;;;;;;;32.00;27.00;;;;;;;;5071746;28;8802;-66
2023/02/03 00:57:39;;;;;;;;;50.67;43.00;;;;;;;;5071682;28;8786;-66
2023/02/03 01:00:04;;;;;;;;;45.67;44.33;;;;;;;;5071777;28;8775;-66
2023/02/03 01:02:29;;;;;;;;;44.33;39.33;;;;;;;;5071663;28;8838;-65
2023/02/03 01:04:55;;;;;;;;;52.33;46.00;;;;;;;;5071765;28;8778;-65
2023/02/03 01:07:20;;;;;;;;;33.00;29.00;;;;;;;;5071544;28;8799;-65
2023/02/03 01:09:46;;;;;;;;;41.33;38.67;;;;;;;;5071606;28;8838;-66
2023/02/03 01:12:11;;;;;;;;;54.00;43.67;;;;;;;;5071491;28;8852;-65
2023/02/03 01:14:36;;;;;;;;;52.67;45.67;;;;;;;;5071535;28;8782;-64
2023/02/03 01:17:01;;;;;;;;;51.67;44.33;;;;;;;;5071326;28;8798;-65
2023/02/03 01:19:27;;;;;;;;;51.67;45.00;;;;;;;;5071430;28;8806;-65
2023/02/03 01:21:52;;;;;;;;;54.00;47.33;;;;;;;;5071189;28;9198;-65
2023/02/03 01:24:17;;;;;;;;;48.00;46.67;;;;;;;;5071204;28;8799;-65
2023/02/03 01:26:43;;;;;;;;;51.00;43.00;;;;;;;;5069876;28;8907;-66
2023/02/03 01:29:08;;;;;;;;;45.67;43.00;;;;;;;;5071379;28;8854;-65
2023/02/03 01:31:35;;;;;;;;;50.33;45.33;;;;;;;;5071170;28;8815;-65
2023/02/03 01:34:01;;;;;;;;;58.67;48.00;;;;;;;;5070921;28;8892;-66
2023/02/03 01:36:28;;;;;;;;;48.67;47.00;;;;;;;;5071109;28;8798;-65
2023/02/03 01:38:53;;;;;;;;;55.33;46.67;;;;;;;;5070992;28;8959;-66
2023/02/03 01:41:23;;;;;;;;;44.67;43.67;;;;;;;;5070937;28;8803;-66
2023/02/03 01:43:50;;;;;;;;;46.00;44.00;;;;;;;;5070911;28;8826;-66
2023/02/03 01:46:15;;;;;;;;;52.00;47.00;;;;;;;;5071013;28;8867;-66
2023/02/03 01:48:40;;;;;;;;;57.33;47.00;;;;;;;;5070897;28;8786;-66
2023/02/03 01:51:06;;;;;;;;;56.67;48.33;;;;;;;;5070673;28;8872;-65
2023/02/03 01:53:32;;;;;;;;;54.33;47.67;;;;;;;;5070635;28;8923;-65
2023/02/03 01:55:58;;;;;;;;;50.33;44.00;;;;;;;;5069281;28;8798;-65
2023/02/03 01:58:27;;;;;;;;;48.00;43.67;;;;;;;;5070729;28;8909;-65
2023/02/03 02:00:53;;;;;;;;;52.67;46.67;;;;;;;;5068912;28;9528;-65
2023/02/03 02:03:19;;;;;;;;;58.67;49.67;;;;;;;;5070170;28;9038;-65
2023/02/03 02:05:47;;;;;;;;;63.33;48.00;;;;;;;;5070629;28;9744;-65
2023/02/03 02:08:13;;;;;;;;;63.33;50.00;;;;;;;;5070264;28;8806;-65
2023/02/03 02:10:38;;;;;;;;;59.33;52.33;;;;;;;;5070477;28;8778;-65
2023/02/03 02:13:04;;;;;;;;;56.00;49.00;;;;;;;;5070600;28;8816;-66
2023/02/03 02:15:35;;;;;;;;;56.00;49.00;;;;;;;;5070349;28;8810;-65
2023/02/03 02:18:07;;;;;;;;;56.00;46.00;;;;;;;;5070437;28;9594;-65
2023/02/03 02:20:51;;;;;;;;;49.67;46.67;;;;;;;;5070251;28;8782;-66
2023/02/03 02:23:25;;;;;;;;;63.67;53.00;;;;;;;;5070126;28;8810;-65
2023/02/03 02:26:08;;;;;;;;;69.00;52.00;;;;;;;;5070075;28;8980;-65
2023/02/03 02:28:42;;;;;;;;;60.67;51.33;;;;;;;;5070089;28;9021;-65
2023/02/03 02:31:27;;;;;;;;;60.33;50.33;;;;;;;;5070048;28;8805;-65
2023/02/03 02:34:04;;;;;;;;;67.67;49.67;;;;;;;;5069953;28;8799;-66
2023/02/03 02:36:32;;;;;;;;;61.67;52.00;;;;;;;;5069043;28;8806;-65
2023/02/03 02:39:06;;;;;;;;;59.00;50.00;;;;;;;;5069948;28;8783;-65
2023/02/03 02:41:34;;;;;;;;;69.33;50.00;;;;;;;;5069776;28;8824;-65
2023/02/03 02:44:06;;;;;;;;;64.00;50.67;;;;;;;;5069899;28;8842;-64
2023/02/03 02:46:38;;;;;;;;;54.33;48.67;;;;;;;;5068726;28;8802;-66
2023/02/03 02:49:11;;;;;;;;;60.33;49.00;;;;;;;;5069928;28;9596;-65
2023/02/03 02:51:38;;;;;;;;;58.33;50.33;;;;;;;;5069331;28;8833;-66
2023/02/03 02:54:06;;;;;;;;;61.67;50.00;;;;;;;;5069389;28;8810;-66
2023/02/03 02:56:33;;;;;;;;;58.00;48.33;;;;;;;;5069568;28;8798;-66
2023/02/03 02:59:00;;;;;;;;;55.67;47.00;;;;;;;;5069596;28;9611;-66
2023/02/03 03:01:25;;;;;;;;;55.00;49.67;;;;;;;;5069568;28;8770;-66
2023/02/03 03:03:51;;;;;;;;;62.00;49.00;;;;;;;;5069147;28;8937;-65
2023/02/03 03:06:19;;;;;;;;;57.00;48.33;;;;;;;;5069345;28;8798;-65
2023/02/03 03:08:47;;;;;;;;;58.33;47.67;;;;;;;;5067811;28;8802;-65
2023/02/03 03:11:13;;;;;;;;;56.33;48.67;;;;;;;;5069569;28;8794;-65
2023/02/03 03:13:42;;;;;;;;;55.33;48.33;;;;;;;;5069385;28;8795;-65
2023/02/03 03:16:09;;;;;;;;;60.67;49.67;;;;;;;;5069472;28;9622;-65
2023/02/03 03:18:46;;;;;;;;;61.67;50.67;;;;;;;;5069363;28;8952;-66
2023/02/03 03:21:15;;;;;;;;;55.33;49.00;;;;;;;;5069495;28;8887;-65
2023/02/03 03:23:42;;;;;;;;;60.00;49.33;;;;;;;;5069058;28;8818;-65
2023/02/03 03:26:16;;;;;;;;;60.33;48.67;;;;;;;;5069266;28;8925;-65
2023/02/03 03:29:14;;;;;;;;;54.00;45.00;;;;;;;;5069132;28;8833;-64
2023/02/03 03:31:40;;;;;;;;;58.00;52.00;;;;;;;;5026541;28;8816;-66
2023/02/03 03:34:07;;;;;;;;;60.67;50.33;;;;;;;;5009987;28;8834;-66
2023/02/03 03:36:36;;;;;;;;;61.67;52.67;;;;;;;;5027128;28;8819;-65
2023/02/03 03:39:02;;;;;;;;;66.67;51.33;;;;;;;;5039309;28;8820;-67
2023/02/03 03:41:37;;;;;;;;;54.33;47.33;;;;;;;;5036284;28;8832;-65
2023/02/03 03:44:03;;;;;;;;;60.00;52.00;;;;;;;;5036571;28;8868;-66
2023/02/03 03:46:33;;;;;;;;;63.00;51.67;;;;;;;;5036099;28;9095;-65
2023/02/03 03:49:01;;;;;;;;;54.67;49.00;;;;;;;;5033414;28;8820;-65
2023/02/03 03:51:29;;;;;;;;;61.67;52.00;;;;;;;;5041259;28;8798;-66
2023/02/03 03:53:56;;;;;;;;;66.33;54.00;;;;;;;;5043807;28;8887;-66
2023/02/03 03:56:25;;;;;;;;;72.33;52.67;;;;;;;;5043553;28;8821;-66
2023/02/03 03:58:51;;;;;;;;;67.67;53.00;;;;;;;;5032403;28;8810;-65
2023/02/03 04:01:18;;;;;;;;;63.33;50.00;;;;;;;;5034152;28;8839;-65
2023/02/03 04:03:45;;;;;;;;;67.33;52.33;;;;;;;;5036811;28;8979;-66
2023/02/03 04:06:11;;;;;;;;;61.33;52.33;;;;;;;;5039187;28;8927;-66
2023/02/03 04:08:38;;;;;;;;;68.67;52.67;;;;;;;;5073110;28;9533;-66
2023/02/03 04:11:03;;;;;;;;;69.00;52.00;;;;;;;;5072964;28;8802;-66
2023/02/03 04:13:28;;;;;;;;;65.00;52.67;;;;;;;;5072843;28;8794;-66
2023/02/03 04:15:54;;;;;;;;;64.33;52.00;;;;;;;;5073071;28;8884;-66
2023/02/03 04:18:19;;;;;;;;;61.33;49.67;;;;;;;;5073138;28;8803;-65
2023/02/03 04:20:44;;;;;;;;;56.33;48.67;;;;;;;;5072933;28;8787;-65
2023/02/03 04:23:09;;;;;;;;;53.67;46.00;;;;;;;;5072584;28;8991;-65
2023/02/03 04:25:35;;;;;;;;;66.67;52.33;;;;;;;;5070878;28;8807;-66
2023/02/03 04:28:00;;;;;;;;;63.00;49.00;;;;;;;;5089988;28;8783;-66
2023/02/03 04:30:25;;;;;;;;;62.00;52.00;;;;;;;;5091146;28;8914;-65
2023/02/03 04:32:51;;;;;;;;;68.00;53.33;;;;;;;;5090634;28;8803;-66
2023/02/03 04:35:16;;;;;;;;;64.33;52.33;;;;;;;;5091032;28;8807;-65
2023/02/03 04:37:42;;;;;;;;;66.33;52.00;;;;;;;;5090974;28;8784;-66
2023/02/03 04:40:08;;;;;;;;;62.00;52.00;;;;;;;;5091028;28;8796;-65
2023/02/03 04:42:35;;;;;;;;;61.00;48.33;;;;;;;;5090789;28;8930;-65
2023/02/03 04:45:00;;;;;;;;;48.33;36.67;;;;;;;;5090908;28;8783;-65
2023/02/03 04:47:26;;;;;;;;;46.00;42.00;;;;;;;;5090803;28;8820;-65
2023/02/03 04:49:51;;;;;;;;;56.33;44.33;;;;;;;;5090510;28;8910;-66
2023/02/03 04:52:16;;;;;;;;;50.33;42.33;;;;;;;;5090841;28;8788;-66
2023/02/03 04:54:41;;;;;;;;;48.33;41.33;;;;;;;;5090617;28;8788;-65
2023/02/03 04:57:07;;;;;;;;;45.67;40.00;;;;;;;;5089067;28;8830;-66
2023/02/03 04:59:32;;;;;;;;;47.33;42.33;;;;;;;;5091547;28;8788;-65
2023/02/03 05:01:57;;;;;;;;;54.00;45.33;;;;;;;;5091116;28;8826;-65
2023/02/03 05:04:23;;;;;;;;;51.67;42.00;;;;;;;;5090870;28;9053;-65
2023/02/03 05:06:48;;;;;;;;;43.67;38.00;;;;;;;;5091502;28;9507;-65
2023/02/03 05:09:14;;;;;;;;;45.00;40.33;;;;;;;;5091601;28;8780;-65
2023/02/03 05:11:39;;;;;;;;;41.00;36.67;;;;;;;;5090778;28;8796;-65
2023/02/03 05:14:04;;;;;;;;;39.33;34.00;;;;;;;;5090309;28;8832;-64
2023/02/03 05:16:29;;;;;;;;;34.33;28.67;;;;;;;;5089963;28;8835;-65
2023/02/03 05:18:55;;;;;;;;;33.00;29.67;;;;;;;;5090564;28;8866;-65
2023/02/03 05:21:20;;;;;;;;;33.67;33.33;;;;;;;;5090095;28;8807;-65
2023/02/03 05:23:46;;;;;;;;;44.00;37.00;;;;;;;;5091080;28;8925;-65
2023/02/03 05:26:11;;;;;;;;;39.00;33.00;;;;;;;;5090184;28;8820;-66
2023/02/03 05:28:36;;;;;;;;;32.00;27.67;;;;;;;;5091471;28;9458;-65
2023/02/03 05:31:01;;;;;;;;;42.33;34.33;;;;;;;;5091350;28;8919;-65
2023/02/03 05:33:27;;;;;;;;;33.67;33.33;;;;;;;;5091018;28;8808;-64
2023/02/03 05:35:52;;;;;;;;;38.00;35.33;;;;;;;;5090555;28;8920;-65
2023/02/03 05:38:18;;;;;;;;;35.33;28.33;;;;;;;;5090482;28;8792;-66
2023/02/03 05:43:27;;;;;;;;;39.33;33.33;;;;;;;;5094738;28;8816;-66
2023/02/03 05:45:52;;;;;;;;;20.00;16.00;;;;;;;;5092304;28;8807;-66
2023/02/03 05:48:18;;;;;;;;;35.00;29.67;;;;;;;;5091434;28;8903;-64
2023/02/03 05:50:43;;;;;;;;;40.33;36.67;;;;;;;;5090831;28;8800;-66
2023/02/03 05:53:08;;;;;;;;;43.67;37.67;;;;;;;;5090740;28;8934;-65
2023/02/03 05:55:34;;;;;;;;;36.00;33.00;;;;;;;;5090800;28;8800;-65
2023/02/03 05:58:00;;;;;;;;;46.67;36.67;;;;;;;;5090707;28;8839;-66
2023/02/03 06:00:25;;;;;;;;;30.67;27.00;;;;;;;;5090702;28;8800;-65
2023/02/03 06:02:52;;;;;;;;;36.33;31.67;;;;;;;;5090402;28;8819;-66
2023/02/03 06:05:17;;;;;;;;;32.00;28.33;;;;;;;;5090686;28;8918;-65
2023/02/03 06:07:42;;;;;;;;;29.33;29.33;;;;;;;;5090807;28;8891;-65
2023/02/03 06:10:08;;;;;;;;;38.67;32.67;;;;;;;;5090899;28;8800;-66
2023/02/03 06:12:33;;;;;;;;;35.67;32.00;;;;;;;;5090867;28;8800;-65
2023/02/03 06:14:58;;;;;;;;;32.00;29.00;;;;;;;;5091004;28;8772;-65
2023/02/03 06:17:23;;;;;;;;;33.00;30.00;;;;;;;;5090830;28;8788;-66
2023/02/03 06:19:49;;;;;;;;;37.33;30.33;;;;;;;;5090348;28;8806;-67
2023/02/03 06:22:14;;;;;;;;;37.33;34.00;;;;;;;;5090128;28;9553;-66
2023/02/03 06:24:39;;;;;;;;;37.33;30.67;;;;;;;;5090467;28;8788;-67
2023/02/03 06:27:04;;;;;;;;;40.67;35.67;;;;;;;;5089428;28;8807;-66
2023/02/03 06:29:30;;;;;;;;;36.33;33.00;;;;;;;;5090001;28;8823;-66
2023/02/03 06:31:55;;;;;;;;;37.00;31.67;;;;;;;;5090260;28;8780;-66
2023/02/03 06:34:20;;;;;;;;;41.33;30.00;;;;;;;;5089910;28;8834;-66
2023/02/03 06:36:47;;;;;;;;;31.33;28.67;;;;;;;;5089939;28;8800;-65
2023/02/03 06:39:12;;;;;;;;;38.67;28.33;;;;;;;;5086475;28;9391;-66
2023/02/03 06:41:37;;;;;;;;;31.67;28.33;;;;;;;;5089552;28;8788;-67
2023/02/03 06:44:03;;;;;;;;;31.00;27.67;;;;;;;;5071567;28;8818;-67
2023/02/03 06:46:29;;;;;;;;;30.67;28.67;;;;;;;;5089781;28;8859;-65
2023/02/03 06:48:54;;;;;;;;;30.00;27.00;;;;;;;;5089874;28;8823;-66
2023/02/03 06:51:19;;;;;;;;;31.33;29.00;;;;;;;;5089713;28;8964;-66
2023/02/03 06:53:45;;;;;;;;;36.67;28.00;;;;;;;;5089407;28;8809;-66
2023/02/03 06:56:10;;;;;;;;;31.33;31.33;;;;;;;;5059052;28;8893;-66
2023/02/03 06:58:35;;;;;;;;;31.67;28.00;;;;;;;;5058049;28;8802;-65
2023/02/03 07:01:00;;;;;;;;;38.33;34.33;;;;;;;;5049522;28;8778;-65
2023/02/03 07:03:26;;;;;;;;;35.00;34.00;;;;;;;;5048866;28;8806;-65
2023/02/03 07:05:51;;;;;;;;;34.33;31.00;;;;;;;;5049366;28;8786;-65
2023/02/03 07:08:16;;;;;;;;;37.67;32.00;;;;;;;;5049111;28;8867;-64
2023/02/03 07:10:41;;;;;;;;;40.00;30.33;;;;;;;;5049425;28;8901;-65
2023/02/03 07:13:07;;;;;;;;;38.33;34.00;;;;;;;;5060014;28;8905;-64
2023/02/03 07:15:32;;;;;;;;;38.33;31.33;;;;;;;;5031336;28;8904;-64
2023/02/03 07:17:57;;;;;;;;;34.00;32.00;;;;;;;;5049135;28;8829;-64
2023/02/03 07:20:23;;;;;;;;;35.33;33.67;;;;;;;;5048659;28;8790;-65
2023/02/03 07:22:52;;;;;;;;;30.67;30.00;;;;;;;;5052561;28;8854;-65
2023/02/03 07:25:17;;;;;;;;;38.67;33.67;;;;;;;;5035799;28;8818;-66
2023/02/03 07:27:43;;;;;;;;;36.00;33.33;;;;;;;;5068585;28;8796;-66
2023/02/03 07:30:09;;;;;;;;;35.67;32.67;;;;;;;;5051079;28;8871;-66
2023/02/03 07:32:34;;;;;;;;;37.67;34.00;;;;;;;;5068958;28;8805;-65
2023/02/03 07:35:00;;;;;;;;;34.67;34.00;;;;;;;;5068805;28;8806;-67
2023/02/03 07:37:25;;;;;;;;;25.00;23.33;;;;;;;;5069257;28;8805;-68
2023/02/03 07:39:50;;;;;;;;;41.00;32.33;;;;;;;;5073683;28;8805;-66
2023/02/03 07:42:16;;;;;;;;;28.67;27.33;;;;;;;;5076214;28;8878;-66
2023/02/03 07:44:41;;;;;;;;;39.67;35.33;;;;;;;;5078353;28;8943;-67
2023/02/03 07:47:06;;;;;;;;;34.00;28.33;;;;;;;;5079713;28;8823;-66
2023/02/03 07:49:31;;;;;;;;;32.67;30.33;;;;;;;;5077648;28;8784;-67
2023/02/03 07:51:57;;;;;;;;;34.33;32.67;;;;;;;;5079706;28;8887;-65
2023/02/03 07:54:22;;;;;;;;;35.67;34.00;;;;;;;;5078270;28;8780;-66
2023/02/03 07:56:47;;;;;;;;;31.00;31.00;;;;;;;;5077760;28;8790;-66
2023/02/03 07:59:12;;;;;;;;;33.33;26.67;;;;;;;;5079463;28;8886;-67
2023/02/03 08:01:38;;;;;;;;;28.33;26.33;;;;;;;;5077473;28;9021;-65
2023/02/03 08:04:04;;;;;;;;;34.67;32.67;;;;;;;;5079625;28;8838;-64
2023/02/03 09:51:26;;;;;;;;;35.33;32.67;;;;;;;;5082894;27;13361;-66
2023/02/03 09:54:04;;;;;;;;;32.00;27.67;;;;;;;;5083882;28;9620;-66
2023/02/03 09:56:35;;;;;;;;;27.33;24.00;;;;;;;;5085130;28;8946;-66
2023/02/03 09:59:01;;;;;;;;;20.67;17.67;;;;;;;;5085642;28;8800;-66
2023/02/03 10:01:36;;;;;;;;;23.67;19.67;;;;;;;;5086479;28;8818;-64
2023/02/03 10:04:38;;;;;;;;;23.00;20.33;;;;;;;;5085978;28;8812;-64
2023/02/03 10:07:04;;;;;;;;;26.00;23.00;;;;;;;;5023271;28;11506;-65
2023/02/03 10:09:47;;;;;;;;;24.00;21.00;;;;;;;;5022830;28;11607;-64
2023/02/03 10:12:13;;;;;;;;;28.00;24.00;;;;;;;;5023323;28;8831;-65
2023/02/03 10:14:50;;;;;;;;;21.50;21.50;;;;;;;;5023409;28;11507;-66
2023/02/03 10:17:15;;;;;;;;;25.00;23.67;;;;;;;;5022996;28;8907;-64
2023/02/03 10:19:47;;;;;;;;;24.67;20.00;;;;;;;;5022063;28;12237;-66
2023/02/03 10:22:14;;;;;;;;;18.00;17.00;;;;;;;;4973406;28;12548;-66
2023/02/03 10:25:02;;;;;;;;;27.00;20.00;;;;;;;;4976941;28;11546;-65
2023/02/03 10:27:27;;;;;;;;;17.50;14.75;;;;;;;;5026908;28;11497;-65
2023/02/03 10:30:11;;;;;;;;;24.67;22.33;;;;;;;;5022750;28;11477;-65
2023/02/03 10:32:37;;;;;;;;;26.67;24.33;;;;;;;;5021187;28;8827;-66
2023/02/03 10:35:04;;;;;;;;;40.67;35.67;;;;;;;;5020840;28;8820;-65
2023/02/03 10:37:33;;;;;;;;;26.00;24.67;;;;;;;;5020008;28;9009;-66
2023/02/03 10:40:00;;;;;;;;;28.33;23.00;;;;;;;;5021325;28;12433;-67
2023/02/03 10:43:46;;;;;;;;;26.00;19.75;;;;;;;;5025376;28;12215;-65
2023/02/03 10:45:11;;;;;;;;;40.33;35.67;;;;;;;;5023479;28;11610;-66
2023/02/03 10:47:40;;;;;;;;;22.67;18.00;;;;;;;;5024900;28;9498;-67
2023/02/03 10:50:13;;;;;;;;;23.00;22.75;;;;;;;;5024976;28;8943;-66
2023/02/03 10:52:38;;;;;;;;;21.25;18.25;;;;;;;;5006812;28;11546;-67
2023/02/03 10:55:12;;;;;;;;;21.25;18.50;;;;;;;;5022648;28;11580;-67
2023/02/03 10:57:40;;;;;;;;;22.00;15.50;;;;;;;;5024403;28;8879;-68
2023/02/03 11:00:22;;;;;;;;;24.25;24.00;;;;;;;;5024754;28;11541;-67
2023/02/03 11:03:00;;;;;;;;;28.00;22.00;;;;;;;;5011636;28;11533;-67
2023/02/03 11:05:25;;;;;;;;;4.75;4.25;;;;;;;;5011417;28;11549;-67
2023/02/03 11:07:51;;;;;;;;;19.75;18.00;;;;;;;;5010864;28;11626;-67
2023/02/03 11:10:25;;;;;;;;;21.50;18.00;;;;;;;;5011796;28;8830;-66
2023/02/03 11:12:50;;;;;;;;;24.50;19.25;;;;;;;;5011727;28;8831;-67
2023/02/03 11:15:16;;;;;;;;;21.25;18.00;;;;;;;;5011758;28;11540;-66
2023/02/03 11:17:43;;;;;;;;;24.75;21.25;;;;;;;;5011950;28;8826;-65
2023/02/03 11:20:13;;;;;;;;;27.00;21.50;;;;;;;;5010426;28;8884;-67
2023/02/03 11:22:39;;;;;;;;;22.50;22.00;;;;;;;;5010356;28;11548;-66
2023/02/03 11:25:14;;;;;;;;;25.00;20.50;;;;;;;;5011331;28;11632;-67
2023/02/03 11:27:40;;;;;;;;;23.33;17.67;;;;;;;;5010538;28;11635;-66
2023/02/03 11:30:09;;;;;;;;;27.25;20.50;;;;;;;;5010078;28;11740;-67
2023/02/03 11:32:36;;;;;;;;;27.00;21.33;;;;;;;;5010262;28;8886;-65
2023/02/03 11:35:14;;;;;;;;;24.67;24.00;;;;;;;;5009901;28;11510;-70
2023/02/03 11:37:46;;;;;;;;;26.75;25.50;;;;;;;;5010113;28;11577;-67
2023/02/03 11:40:22;;;;;;;;;24.67;23.00;;;;;;;;4971861;28;11523;-66
2023/02/03 11:42:50;;;;;;;;;29.33;27.33;;;;;;;;5030964;28;11521;-66
2023/02/03 11:45:24;;;;;;;;;32.33;32.00;;;;;;;;5046061;28;8831;-66
2023/02/03 11:47:53;;;;;;;;;43.67;35.00;;;;;;;;5030115;28;8838;-67
2023/02/03 11:50:18;;;;;;;;;34.00;32.00;;;;;;;;5027894;28;8855;-66
2023/02/03 11:52:55;;;;;;;;;39.33;33.33;;;;;;;;5029220;28;11608;-66
2023/02/03 11:55:31;;;;;;;;;38.33;29.67;;;;;;;;5029616;28;8932;-67
2023/02/03 11:57:58;;;;;;;;;37.33;31.67;;;;;;;;5028281;28;9013;-66
2023/02/03 12:00:38;;;;;;;;;31.33;28.00;;;;;;;;5028926;28;8824;-66
2023/02/03 12:03:03;;;;;;;;;32.00;26.75;;;;;;;;5028963;28;11528;-67
2023/02/03 12:05:55;;;;;;;;;32.25;26.00;;;;;;;;5030432;28;11496;-66
2023/02/03 12:08:32;;;;;;;;;30.00;27.50;;;;;;;;5041798;28;8833;-67
2023/02/03 12:11:09;;;;;;;;;32.50;30.00;;;;;;;;5030423;28;11603;-68
2023/02/03 12:13:37;;;;;;;;;35.25;27.00;;;;;;;;5029932;28;11690;-67
2023/02/03 12:16:17;;;;;;;;;32.00;28.75;;;;;;;;5008375;28;11507;-69
2023/02/03 12:18:49;;;;;;;;;27.00;26.25;;;;;;;;5032174;28;11602;-67
2023/02/03 12:21:29;;;;;;;;;38.50;31.50;;;;;;;;5030317;28;12246;-67
2023/02/03 12:24:06;;;;;;;;;33.00;28.50;;;;;;;;5030456;28;11540;-67
2023/02/03 12:26:50;;;;;;;;;26.75;23.00;;;;;;;;5030399;28;11478;-67
2023/02/03 12:29:20;;;;;;;;;25.50;23.75;;;;;;;;5030352;28;11514;-66
2023/02/03 12:31:49;;;;;;;;;27.00;26.00;;;;;;;;5030255;28;11530;-67
2023/02/03 12:34:14;;;;;;;;;23.00;22.00;;;;;;;;5030439;28;11520;-67
2023/02/03 12:36:43;;;;;;;;;28.25;19.75;;;;;;;;5029828;28;11494;-66
2023/02/03 12:39:15;;;;;;;;;29.75;26.00;;;;;;;;5030153;28;8851;-67
2023/02/03 12:41:45;;;;;;;;;27.00;22.75;;;;;;;;5013360;28;11499;-68
2023/02/03 12:44:16;;;;;;;;;27.50;24.75;;;;;;;;5031055;28;11590;-68
2023/02/03 12:46:44;;;;;;;;;26.50;23.00;;;;;;;;5030262;28;11483;-66
2023/02/03 12:49:14;;;;;;;;;25.50;23.25;;;;;;;;5029469;28;11523;-66
2023/02/03 12:51:45;;;;;;;;;23.75;20.75;;;;;;;;5029501;28;11622;-66
2023/02/03 12:54:31;;;;;;;;;22.25;20.50;;;;;;;;5029990;28;12253;-65
2023/02/03 12:56:59;;;;;;;;;20.50;19.00;;;;;;;;5021993;28;11545;-64
2023/02/03 12:59:26;;;;;;;;;19.25;16.25;;;;;;;;5029711;28;11477;-65
2023/02/03 13:01:55;;;;;;;;;21.50;18.00;;;;;;;;5011461;28;11566;-66
2023/02/03 13:04:40;;;;;;;;;16.25;16.00;;;;;;;;5029315;28;11485;-67
2023/02/03 13:07:15;;;;;;;;;19.00;16.75;;;;;;;;5029751;28;11493;-67
2023/02/03 13:09:47;;;;;;;;;19.50;17.25;;;;;;;;5029513;28;11537;-68
2023/02/03 13:12:19;;;;;;;;;20.50;16.75;;;;;;;;5011181;28;11680;-66
2023/02/03 13:15:03;;;;;;;;;15.25;13.25;;;;;;;;5029028;28;11480;-67
2023/02/03 13:17:42;;;;;;;;;17.00;16.00;;;;;;;;5029338;28;12224;-64
2023/02/03 13:20:21;;;;;;;;;20.00;15.25;;;;;;;;5029388;28;12233;-66
2023/02/03 13:22:46;;;;;;;;;16.50;16.00;;;;;;;;5029079;28;11496;-67
2023/02/03 13:25:14;;;;;;;;;16.00;14.50;;;;;;;;5028330;28;11522;-66
2023/02/03 13:27:39;;;;;;;;;22.50;16.75;;;;;;;;5028861;28;8819;-66
2023/02/03 13:30:21;;;;;;;;;16.75;12.00;;;;;;;;5028999;28;11541;-66
2023/02/03 13:32:46;;;;;;;;;12.25;12.25;;;;;;;;5028858;28;8905;-67
2023/02/03 13:35:47;;;;;;;;;11.25;10.00;;;;;;;;5028386;28;11632;-66
2023/02/03 13:38:47;;;;;;;;;15.50;12.75;;;;;;;;4961990;28;8959;-65
2023/02/03 13:41:13;;;;;;;;;10.00;9.00;;;;;;;;4978741;28;11559;-65
2023/02/03 13:43:43;;;;;;;;;15.25;14.50;;;;;;;;5015833;28;12268;-66
2023/02/03 13:46:19;;;;;;;;;21.75;20.00;;;;;;;;5029086;28;8797;-65
2023/02/03 13:48:45;;;;;;;;;13.50;13.50;;;;;;;;5028931;28;11701;-66
2023/02/03 13:51:16;;;;;;;;;11.00;9.00;;;;;;;;5028654;28;11613;-66
2023/02/03 13:53:42;;;;;;;;;13.25;11.25;;;;;;;;5028289;28;11448;-66
2023/02/03 13:56:15;;;;;;;;;11.00;8.75;;;;;;;;5028293;28;11483;-66
2023/02/03 13:58:40;;;;;;;;;15.25;11.75;;;;;;;;5028550;28;12222;-64
2023/02/03 14:01:32;;;;;;;;;12.50;12.00;;;;;;;;5028497;28;11515;-64
2023/02/03 14:03:58;;;;;;;;;13.50;9.75;;;;;;;;5025681;28;8889;-63
2023/02/03 14:06:38;;;;;;;;;14.00;9.75;;;;;;;;5028724;28;11481;-63
2023/02/03 14:09:21;;;;;;;;;11.50;10.50;;;;;;;;5029222;28;8783;-64
2023/02/03 14:11:48;;;;;;;;;11.75;8.00;;;;;;;;5027254;28;11504;-64
2023/02/03 14:14:13;;;;;;;;;14.00;11.25;;;;;;;;5026713;28;11579;-63
2023/02/03 14:16:42;;;;;;;;;13.50;12.50;;;;;;;;5027034;28;11503;-64
2023/02/03 14:19:09;;;;;;;;;15.00;9.25;;;;;;;;5027046;28;8816;-63
2023/02/03 14:21:45;;;;;;;;;12.75;11.25;;;;;;;;5026941;28;11478;-64
2023/02/03 14:24:11;;;;;;;;;13.75;13.00;;;;;;;;5025806;28;12289;-63
2023/02/03 14:26:37;;;;;;;;;12.50;12.50;;;;;;;;5028443;28;11518;-65
2023/02/03 14:29:03;;;;;;;;;12.50;12.50;;;;;;;;5028024;28;11506;-64
2023/02/03 14:31:29;;;;;;;;;18.00;13.75;;;;;;;;5028351;28;11596;-64
2023/02/03 14:33:58;;;;;;;;;13.00;13.00;;;;;;;;5027976;28;11483;-65
2023/02/03 14:36:28;;;;;;;;;12.50;12.00;;;;;;;;5029344;28;8804;-64
2023/02/03 14:38:54;;;;;;;;;15.50;12.50;;;;;;;;5031739;28;11588;-65
2023/02/03 14:41:28;;;;;;;;;15.75;13.50;;;;;;;;5031853;28;11529;-65
2023/02/03 14:43:56;;;;;;;;;12.00;12.00;;;;;;;;5032084;28;11576;-64
2023/02/03 14:46:54;;;;;;;;;16.25;15.00;;;;;;;;5032301;28;11517;-64
2023/02/03 14:49:19;;;;;;;;;17.50;15.50;;;;;;;;4992022;28;11617;-64
2023/02/03 14:51:44;;;;;;;;;19.50;16.25;;;;;;;;5032092;28;11467;-63
2023/02/03 14:54:13;;;;;;;;;20.25;14.25;;;;;;;;5014260;28;8872;-64
2023/02/03 14:57:15;;;;;;;;;18.00;15.50;;;;;;;;5031973;28;8792;-64
2023/02/03 14:59:40;;;;;;;;;18.50;16.75;;;;;;;;5033468;28;11476;-66
2023/02/03 15:02:06;;;;;;;;;14.25;14.25;;;;;;;;5030015;28;11533;-65
2023/02/03 15:04:32;;;;;;;;;17.00;17.00;;;;;;;;5041452;28;8822;-65
2023/02/03 15:06:57;;;;;;;;;15.50;14.50;;;;;;;;5051331;28;11457;-66
2023/02/03 15:09:35;;;;;;;;;14.75;12.00;;;;;;;;5035248;28;8812;-66
2023/02/03 15:12:01;;;;;;;;;15.00;13.75;;;;;;;;5030341;28;8801;-66
2023/02/03 15:14:30;;;;;;;;;15.25;13.00;;;;;;;;5028922;28;12232;-66
2023/02/03 15:16:58;;;;;;;;;17.50;16.25;;;;;;;;5031308;28;8796;-65
2023/02/03 15:19:26;;;;;;;;;21.00;15.50;;;;;;;;5028757;28;12362;-64
2023/02/03 15:21:51;;;;;;;;;17.00;14.00;;;;;;;;5029196;28;11646;-65
2023/02/03 15:24:20;;;;;;;;;22.75;15.75;;;;;;;;5028183;28;11644;-65
2023/02/03 15:26:46;;;;;;;;;17.25;15.25;;;;;;;;5029371;28;8891;-64
2023/02/03 15:29:26;;;;;;;;;13.00;12.00;;;;;;;;5029411;28;11435;-65
2023/02/03 15:31:54;;;;;;;;;15.50;12.00;;;;;;;;5029193;28;11449;-68
2023/02/03 15:34:27;;;;;;;;;8.75;7.50;;;;;;;;5010767;28;11527;-66
2023/02/03 15:36:54;;;;;;;;;8.25;5.50;;;;;;;;5039518;23;11601;-67
2023/02/03 15:39:22;;;;;;;;;12.00;11.00;;;;;;;;5031135;28;11535;-67
2023/02/03 15:41:49;;;;;;;;;11.25;9.00;;;;;;;;5030737;28;11575;-66
2023/02/03 15:44:35;;;;;;;;;10.00;9.50;;;;;;;;5030864;28;11542;-66
2023/02/03 15:47:02;;;;;;;;;10.00;8.00;;;;;;;;5030299;28;11606;-66
2023/02/03 15:49:40;;;;;;;;;10.75;8.25;;;;;;;;5030885;28;11637;-66
2023/02/03 15:52:09;;;;;;;;;8.00;7.50;;;;;;;;5030048;28;12256;-67
2023/02/03 15:54:41;;;;;;;;;8.50;7.50;;;;;;;;5030235;28;12265;-66
2023/02/03 15:57:27;;;;;;;;;11.75;8.50;;;;;;;;5029456;28;10974;-67
2023/02/03 15:59:57;;;;;;;;;2.50;2.50;;;;;;;;5029675;28;11541;-67
2023/02/03 16:02:27;;;;;;;;;7.00;5.00;;;;;;;;5030668;28;11516;-68
2023/02/03 16:04:53;;;;;;;;;4.75;4.00;;;;;;;;5030083;28;11584;-67
2023/02/03 16:07:23;;;;;;;;;5.00;5.00;;;;;;;;5030223;28;11516;-65
2023/02/03 16:09:52;;;;;;;;;6.75;5.75;;;;;;;;5030485;28;8882;-67
2023/02/03 16:12:23;;;;;;;;;5.00;3.00;;;;;;;;5029043;28;11535;-66
2023/02/03 16:14:48;;;;;;;;;8.75;8.00;;;;;;;;5010897;28;11524;-67
2023/02/03 16:17:20;;;;;;;;;5.25;5.25;;;;;;;;5030229;28;11523;-67
2023/02/03 16:19:50;;;;;;;;;4.00;4.00;;;;;;;;5030226;28;8823;-66
2023/02/03 16:22:29;;;;;;;;;5.00;4.75;;;;;;;;5030190;28;11502;-67
2023/02/03 16:24:55;;;;;;;;;12.00;9.00;;;;;;;;5029906;28;11515;-66
2023/02/03 16:27:20;;;;;;;;;10.00;8.00;;;;;;;;5029235;28;11563;-67